Aérodrome :
LOGIN :

S'inscrire | Disclaimer

   EN    FR    IT 

 










Légende :    VFR   VFR Marginal   IFR   IFR Intensif   IFR Très Intensif
Visi : 
Plafond : 
>= 8 km
>= 3000ft
5 à 8 km
1000 à 3000 ft
1500m à 5 km
500 à 1000 ft
800 à 1500m
200 à 500 ft
< 800m
< 200 ft
Symboles :   Orages  Brouillard  Fortes neiges  Fortes précipitations  Vent > 20 kt
SIGMETs :   Divers  Orages  Givrage  Turbulence  Onde Orograph.  Cendres Volcan.







- Altitude de l'aérodrome : 370 ft


EBBE - Beauvechain AB

DERNIER METAR :
  • 290655Z 21010KT 9999 FEW008 SCT013 BKN022 16/14 Q0996 GRN WHT TEMPO GRN

METARs EXPIRÉS :
  • 290645Z 21010KT 9999 FEW008 SCT013 BKN022 16/14 Q0996 GRN WHT TEMPO GRN
  • 290625Z 22010KT 9999 FEW008 SCT016 BKN024 16/14 Q0996 WHT WHT TEMPO GRN
  • 290555Z 21008KT 9999 FEW009 SCT018 BKN028 15/14 Q0996 WHT WHT TEMPO GRN
  • 290542Z 21009KT 9999 FEW009 SCT017 BKN028 15/14 Q0996 WHT WHT TEMPO GRN
  • 290535Z AUTO 21010KT 9999 FEW009/// SCT012/// BKN021/// 15/14 Q0996 GRN
  • 290525Z 21009KT 9999 FEW009 SCT018 BKN023 15/14 Q0996 WHT WHT TEMPO GRN
  • 290503Z 21007KT 9999 FEW007 SCT015 BKN020 15/14 Q0996 WHT WHT TEMPO GRN
  • 290455Z 22007KT 9999 FEW007 SCT015 BKN020 15/14 Q0996 WHT WHT TEMPO GRN
  • 290425Z 22007KT 9999 SCT006 BKN020 15/14 Q0995 YLO YLO BECMG WHT

TAF TAF EBBE
Valide du 29 à 07h jusqu'au 29 à 16h UTC


290541Z 2907/2916 22010KT 9999 FEW010 SCT020 BKN025
BECMG 2907/2909 FEW015 SCT025 BKN080
PROB30
TEMPO 2912/2916 4000 SHRA SCT020TCU BKN030
Pas de NOTAMs connus pour ce terrain.



MET'MAP, la Météo Aéronautique d'un coup d'oeil ! - Copyright ORBIFLY Décembre 2007 - Disclaimer

ORBIFLY MET'MAP TEAM :

Programmation & Développement : Alexandra Zaïnal
Conception & Développement : Baudouin d'Aumeries
Co-Programmation & Développement : Marc-Olivier Méhu
Soutien technique & logistique : Manuel Goepfert

Contact : metmap@orbifly.com




SOURCES & CREDITS :

   NOAA